createdAt,value
2024-04-24T00:03:30.899Z,47.9118
2024-04-24T00:13:39.756Z,47.8958
2024-04-24T00:23:48.549Z,47.8135
2024-04-24T00:34:09.772Z,47.8096
2024-04-24T00:44:18.383Z,47.8210
2024-04-24T00:54:27.090Z,47.8269
2024-04-24T01:04:36.776Z,47.8625
2024-04-24T01:14:45.295Z,47.9021
2024-04-24T01:25:06.465Z,47.9031
2024-04-24T01:35:27.705Z,47.8861
2024-04-24T01:45:36.434Z,47.9046
2024-04-24T01:55:46.060Z,47.9075
2024-04-24T02:05:54.644Z,47.9044
2024-04-24T02:16:15.838Z,47.9008
2024-04-24T02:26:37.020Z,47.9098
2024-04-24T02:36:45.626Z,47.9194
2024-04-24T02:46:54.556Z,47.8981
2024-04-24T02:57:15.758Z,47.9073
2024-04-24T03:07:24.379Z,47.9048
2024-04-24T03:17:34.304Z,47.7869
2024-04-24T03:27:43.011Z,47.7210
2024-04-24T03:38:04.179Z,47.6898
2024-04-24T03:48:25.559Z,47.6649
2024-04-24T03:58:34.621Z,47.6406
2024-04-24T04:08:43.220Z,47.6300
2024-04-24T04:18:53.008Z,47.6142
2024-04-24T04:29:05.962Z,47.5794
2024-04-24T04:39:15.709Z,47.5804
2024-04-24T04:49:24.505Z,47.5948
2024-04-24T04:59:34.169Z,47.5969
2024-04-24T05:09:42.796Z,47.5850
2024-04-24T05:20:04.330Z,47.5778
2024-04-24T05:30:13.190Z,47.5840
2024-04-24T05:40:24.196Z,47.5865
2024-04-24T05:50:33.095Z,47.6042
2024-04-24T06:00:42.145Z,47.6108
2024-04-24T06:11:00.721Z,47.6140
2024-04-24T06:21:09.900Z,47.6015
2024-04-24T06:31:18.848Z,47.5446
2024-04-24T06:41:27.896Z,47.5262
2024-04-24T06:51:39.080Z,47.5356
2024-04-24T07:01:48.368Z,47.5475
2024-04-24T07:12:04.922Z,47.5425
2024-04-24T07:22:16.456Z,47.5379
2024-04-24T07:32:25.232Z,47.5406
2024-04-24T07:42:33.995Z,47.4967
2024-04-24T07:52:45.364Z,47.4413
2024-04-24T08:02:54.477Z,47.4356
2024-04-24T08:13:10.426Z,47.4192
2024-04-24T08:23:24.002Z,47.4277
2024-04-24T08:33:34.512Z,47.3867
2024-04-24T08:43:43.350Z,46.9113
2024-04-24T08:53:59.078Z,46.7917
2024-04-24T09:04:08.281Z,46.7183
2024-04-24T09:14:17.521Z,46.6987
2024-04-24T09:24:26.606Z,46.6550
2024-04-24T09:34:36.416Z,46.5881
2024-04-24T09:44:45.720Z,46.5623
2024-04-24T09:54:55.403Z,46.5585
2024-04-24T10:05:04.348Z,46.5450
2024-04-24T10:15:13.297Z,46.5383
2024-04-24T10:25:23.083Z,46.5367
2024-04-24T10:35:32.012Z,46.5377
2024-04-24T10:45:42.651Z,46.5187
2024-04-24T10:55:52.021Z,46.5138
2024-04-24T11:06:00.995Z,46.4985
2024-04-24T11:16:11.276Z,46.4671
2024-04-24T11:26:20.270Z,46.4433
2024-04-24T11:36:29.119Z,46.4304
2024-04-24T11:46:38.724Z,46.4319
2024-04-24T11:56:47.356Z,46.4300
2024-04-24T12:06:56.023Z,46.4254
2024-04-24T12:17:04.950Z,46.4025
2024-04-24T12:27:13.736Z,46.3748
2024-04-24T12:37:34.990Z,46.3545
2024-04-24T12:47:43.999Z,46.3500
2024-04-24T12:57:52.763Z,46.3423
2024-04-24T13:08:14.030Z,46.3302
2024-04-24T13:18:23.476Z,46.3237
2024-04-24T13:28:33.087Z,46.2546
2024-04-24T13:38:54.318Z,46.2680
2024-04-24T13:49:03.394Z,46.2519
2024-04-24T13:59:13.277Z,46.2431
2024-04-24T14:09:22.272Z,46.2196
2024-04-24T14:19:31.163Z,46.1925
2024-04-24T14:29:39.977Z,46.2050
2024-04-24T14:39:48.861Z,46.2100
2024-04-24T14:50:01.618Z,46.1362
2024-04-24T15:00:10.531Z,45.9862
2024-04-24T15:10:19.352Z,46.0083
2024-04-24T15:20:40.601Z,45.9925
2024-04-24T15:30:49.584Z,46.0075
2024-04-24T15:40:58.381Z,46.0079
2024-04-24T15:51:19.599Z,45.9769
2024-04-24T16:01:28.563Z,45.9396
2024-04-24T16:11:37.511Z,45.9360
2024-04-24T16:21:46.447Z,45.9700
2024-04-24T16:31:55.286Z,45.9777
2024-04-24T16:42:03.800Z,45.9858
2024-04-24T16:52:25.033Z,46.0033
2024-04-24T17:02:34.039Z,46.0062
2024-04-24T17:12:42.938Z,45.9813
2024-04-24T17:22:51.818Z,45.9721
2024-04-24T17:33:00.722Z,45.9700
2024-04-24T17:43:09.702Z,45.9735
2024-04-24T17:53:18.426Z,45.9800
2024-04-24T18:03:39.715Z,45.9776
2024-04-24T18:13:48.692Z,45.9798
2024-04-24T18:23:57.476Z,45.9840
2024-04-24T18:34:18.711Z,46.0000
2024-04-24T18:44:40.085Z,46.0002
2024-04-24T18:54:48.880Z,46.0212
2024-04-24T19:05:00.030Z,46.0167
2024-04-24T19:15:08.805Z,46.0090
2024-04-24T19:25:30.136Z,46.0100
2024-04-24T19:35:38.955Z,46.0183
2024-04-24T19:45:47.941Z,46.0129
2024-04-24T19:55:56.729Z,46.0200
2024-04-24T20:06:05.370Z,46.0400
2024-04-24T20:16:14.196Z,46.0390
2024-04-24T20:26:35.586Z,46.0388
2024-04-24T20:36:44.484Z,46.0383
2024-04-24T20:46:53.265Z,46.0423
2024-04-24T20:57:14.482Z,46.0404
2024-04-24T21:07:23.203Z,46.0400
2024-04-24T21:17:32.028Z,46.0485
2024-04-24T21:27:40.841Z,46.0065
2024-04-24T21:37:49.430Z,45.9896
2024-04-24T21:48:10.700Z,45.9955
2024-04-24T21:58:31.955Z,45.9865
2024-04-24T22:08:40.743Z,45.9819
2024-04-24T22:18:49.791Z,45.9760
2024-04-24T22:28:58.624Z,45.9963
2024-04-24T22:39:07.259Z,46.0056
2024-04-24T22:49:28.497Z,46.0029
2024-04-24T22:59:37.328Z,46.0085
2024-04-24T23:09:45.970Z,46.0096
2024-04-24T23:20:07.252Z,45.9994
2024-04-24T23:30:15.823Z,45.9858
2024-04-24T23:40:24.507Z,45.9917
2024-04-24T23:50:33.341Z,45.9971
